createdAt,value
2022-11-28T00:00:28.786Z,12
2022-11-28T00:10:35.428Z,12
2022-11-28T00:20:41.676Z,9
2022-11-28T00:30:46.613Z,9
2022-11-28T00:40:50.274Z,11
2022-11-28T00:50:57.989Z,9
2022-11-28T01:01:01.883Z,12
2022-11-28T01:11:05.657Z,4
2022-11-28T01:21:12.114Z,5
2022-11-28T01:31:18.237Z,6
2022-11-28T01:41:24.785Z,4
2022-11-28T01:51:30.866Z,6
2022-11-28T02:01:35.848Z,6
2022-11-28T02:11:40.033Z,5
2022-11-28T02:21:45.108Z,6
2022-11-28T02:31:51.892Z,5
2022-11-28T02:41:57.677Z,5
2022-11-28T02:52:03.392Z,5
2022-11-28T03:02:09.463Z,6
2022-11-28T03:12:12.669Z,3
2022-11-28T03:22:19.084Z,4
2022-11-28T03:32:24.449Z,4
2022-11-28T03:42:28.187Z,5
2022-11-28T03:52:34.538Z,5
2022-11-28T04:02:40.394Z,3
2022-11-28T04:12:46.212Z,5
2022-11-28T04:22:50.711Z,5
2022-11-28T04:32:58.002Z,4
2022-11-28T04:43:03.043Z,5
2022-11-28T04:53:09.985Z,7
2022-11-28T05:03:17.046Z,8
2022-11-28T05:13:23.343Z,13
2022-11-28T05:23:29.306Z,9
2022-11-28T05:33:34.549Z,12
2022-11-28T05:43:39.137Z,11
2022-11-28T05:53:44.630Z,12
2022-11-28T06:03:50.171Z,9
2022-11-28T06:13:56.875Z,9
2022-11-28T06:24:01.801Z,7
2022-11-28T06:34:07.539Z,9
2022-11-28T06:44:11.418Z,10
2022-11-28T06:54:18.501Z,9
2022-11-28T07:04:22.573Z,11
2022-11-28T07:14:29.074Z,6
2022-11-28T07:24:34.405Z,5
2022-11-28T07:34:40.281Z,4
2022-11-28T07:44:44.999Z,8
2022-11-28T07:54:49.463Z,9
2022-11-28T08:04:56.634Z,11
2022-11-28T08:15:01.643Z,17
2022-11-28T08:25:08.458Z,11
2022-11-28T08:35:15.265Z,22
2022-11-28T08:45:21.089Z,18
2022-11-28T08:55:32.010Z,15
2022-11-28T09:05:33.310Z,25
2022-11-28T09:15:38.303Z,23
2022-11-28T09:25:44.250Z,112
2022-11-28T09:35:48.625Z,141
2022-11-28T09:45:53.863Z,16
2022-11-28T09:55:58.673Z,14
2022-11-28T10:06:03.726Z,18
2022-11-28T10:16:10.169Z,9
2022-11-28T10:26:17.488Z,11
2022-11-28T10:36:22.790Z,14
2022-11-28T10:46:29.229Z,14
2022-11-28T10:56:38.774Z,15
2022-11-28T11:06:41.963Z,21
2022-11-28T11:17:01.902Z,19
2022-11-28T11:27:07.344Z,16
2022-11-28T11:37:12.002Z,21
2022-11-28T11:47:17.136Z,20
2022-11-28T11:57:41.857Z,24
2022-11-28T12:07:36.376Z,13
2022-11-28T12:18:34.372Z,13
2022-11-28T12:28:27.101Z,14
2022-11-28T12:38:57.321Z,18
2022-11-28T12:48:53.363Z,26
2022-11-28T12:58:56.174Z,15
2022-11-28T13:09:00.595Z,11
2022-11-28T13:19:07.085Z,11
2022-11-28T13:29:14.422Z,9
2022-11-28T13:40:56.583Z,8
2022-11-28T13:52:18.855Z,21
2022-11-28T14:02:21.717Z,10
2022-11-28T14:12:30.607Z,11
2022-11-28T14:22:34.851Z,7
2022-11-28T14:33:12.977Z,20
2022-11-28T14:43:45.435Z,36
2022-11-28T14:53:38.712Z,23
2022-11-28T15:03:44.406Z,21
2022-11-28T15:13:50.135Z,21
2022-11-28T15:23:56.309Z,21
2022-11-28T15:34:02.588Z,35
2022-11-28T15:44:08.954Z,19
2022-11-28T15:54:15.117Z,21
2022-11-28T16:04:18.992Z,34
2022-11-28T16:14:23.492Z,41
2022-11-28T16:24:28.805Z,35
2022-11-28T16:34:32.893Z,37
2022-11-28T16:44:38.230Z,40
2022-11-28T16:54:44.414Z,37
2022-11-28T17:04:50.883Z,39
2022-11-28T17:15:00.499Z,31
2022-11-28T17:25:01.461Z,27
2022-11-28T17:35:07.920Z,29
2022-11-28T17:45:13.154Z,38
2022-11-28T17:55:17.402Z,136
2022-11-28T18:05:23.160Z,97
2022-11-28T18:15:28.444Z,62
2022-11-28T18:25:33.289Z,53
2022-11-28T18:35:38.446Z,47
2022-11-28T18:45:44.365Z,43
2022-11-28T18:55:52.103Z,41
2022-11-28T19:05:57.018Z,39
2022-11-28T19:16:04.224Z,27
2022-11-28T19:26:08.893Z,15
2022-11-28T19:36:15.795Z,16
2022-11-28T19:46:22.523Z,17
2022-11-28T19:56:27.866Z,19
2022-11-28T20:06:34.771Z,16
2022-11-28T20:16:41.522Z,12
2022-11-28T20:26:46.542Z,21
2022-11-28T20:36:51.165Z,16
2022-11-28T20:46:58.166Z,11
2022-11-28T20:57:21.580Z,10
2022-11-28T21:07:15.792Z,10
2022-11-28T21:17:21.519Z,14
2022-11-28T21:27:36.448Z,11
2022-11-28T21:37:31.270Z,8
2022-11-28T21:47:36.855Z,12
2022-11-28T21:57:42.873Z,9
2022-11-28T22:07:47.376Z,10
2022-11-28T22:17:53.488Z,12
2022-11-28T22:28:05.309Z,14
2022-11-28T22:38:11.649Z,12
2022-11-28T22:48:15.409Z,16
2022-11-28T22:58:21.729Z,21
2022-11-28T23:08:27.211Z,18
2022-11-28T23:18:33.797Z,17
2022-11-28T23:28:38.398Z,13
2022-11-28T23:38:45.664Z,15
2022-11-28T23:48:52.229Z,18
2022-11-28T23:58:58.337Z,16
